sensor_id;sensor_type;location;lat;lon;timestamp;pressure;altitude;pressure_sealevel;temperature;humidity
39411;BME280;26579;43.238;23.124;2023-07-02T00:01:52;96207.34;;;19.39;83.94
39411;BME280;26579;43.238;23.124;2023-07-02T00:04:17;96212.66;;;19.46;84.65
39411;BME280;26579;43.238;23.124;2023-07-02T00:06:43;96201.09;;;19.54;83.21
39411;BME280;26579;43.238;23.124;2023-07-02T00:09:10;96189.94;;;19.58;82.95
39411;BME280;26579;43.238;23.124;2023-07-02T00:11:36;96201.53;;;19.64;83.65
39411;BME280;26579;43.238;23.124;2023-07-02T00:14:02;96189.53;;;19.61;82.22
39411;BME280;26579;43.238;23.124;2023-07-02T00:16:28;96194.03;;;19.74;82.31
39411;BME280;26579;43.238;23.124;2023-07-02T00:18:53;96199.53;;;19.79;81.80
39411;BME280;26579;43.238;23.124;2023-07-02T00:21:19;96199.16;;;19.76;81.94
39411;BME280;26579;43.238;23.124;2023-07-02T00:23:45;96210.09;;;19.79;82.47
39411;BME280;26579;43.238;23.124;2023-07-02T00:26:10;96219.66;;;19.80;79.73
39411;BME280;26579;43.238;23.124;2023-07-02T00:28:36;96202.38;;;19.78;82.28
39411;BME280;26579;43.238;23.124;2023-07-02T00:31:02;96204.22;;;19.71;83.27
39411;BME280;26579;43.238;23.124;2023-07-02T00:33:28;96199.09;;;19.69;83.98
39411;BME280;26579;43.238;23.124;2023-07-02T00:35:54;96203.00;;;19.66;84.59
39411;BME280;26579;43.238;23.124;2023-07-02T00:38:20;96203.22;;;19.78;82.30
39411;BME280;26579;43.238;23.124;2023-07-02T00:40:45;96211.53;;;19.88;82.06
39411;BME280;26579;43.238;23.124;2023-07-02T00:43:12;96213.78;;;19.98;81.73
39411;BME280;26579;43.238;23.124;2023-07-02T00:45:38;96207.09;;;20.02;81.54
39411;BME280;26579;43.238;23.124;2023-07-02T00:48:04;96207.28;;;20.01;81.83
39411;BME280;26579;43.238;23.124;2023-07-02T00:50:30;96208.28;;;20.06;81.41
39411;BME280;26579;43.238;23.124;2023-07-02T00:52:56;96219.25;;;20.10;81.26
39411;BME280;26579;43.238;23.124;2023-07-02T00:55:21;96216.63;;;20.10;81.78
39411;BME280;26579;43.238;23.124;2023-07-02T00:57:47;96213.97;;;20.10;82.38
39411;BME280;26579;43.238;23.124;2023-07-02T01:00:13;96218.47;;;20.23;81.11
39411;BME280;26579;43.238;23.124;2023-07-02T01:02:39;96196.72;;;20.14;81.27
39411;BME280;26579;43.238;23.124;2023-07-02T01:05:04;96197.75;;;20.13;81.62
39411;BME280;26579;43.238;23.124;2023-07-02T01:07:30;96200.16;;;20.21;82.16
39411;BME280;26579;43.238;23.124;2023-07-02T01:09:56;96209.94;;;20.21;82.24
39411;BME280;26579;43.238;23.124;2023-07-02T01:12:22;96228.63;;;20.12;83.42
39411;BME280;26579;43.238;23.124;2023-07-02T01:14:51;96216.84;;;20.02;84.34
39411;BME280;26579;43.238;23.124;2023-07-02T01:17:19;96218.88;;;20.13;84.11
39411;BME280;26579;43.238;23.124;2023-07-02T01:19:50;96199.38;;;20.14;84.58
39411;BME280;26579;43.238;23.124;2023-07-02T01:22:18;96196.94;;;19.99;84.96
39411;BME280;26579;43.238;23.124;2023-07-02T01:24:45;96200.78;;;20.03;84.56
39411;BME280;26579;43.238;23.124;2023-07-02T01:27:11;96190.19;;;20.10;82.99
39411;BME280;26579;43.238;23.124;2023-07-02T01:29:37;96205.44;;;20.21;82.96
39411;BME280;26579;43.238;23.124;2023-07-02T01:32:03;96201.00;;;20.28;81.63
39411;BME280;26579;43.238;23.124;2023-07-02T01:34:28;96186.13;;;20.27;82.02
39411;BME280;26579;43.238;23.124;2023-07-02T01:36:54;96203.22;;;20.25;82.64
39411;BME280;26579;43.238;23.124;2023-07-02T01:39:20;96200.78;;;20.23;80.14
39411;BME280;26579;43.238;23.124;2023-07-02T01:41:51;96205.06;;;20.18;80.28
39411;BME280;26579;43.238;23.124;2023-07-02T01:44:17;96196.31;;;20.17;80.74
39411;BME280;26579;43.238;23.124;2023-07-02T01:46:43;96185.13;;;20.08;81.70
39411;BME280;26579;43.238;23.124;2023-07-02T01:49:10;96183.31;;;20.09;81.46
39411;BME280;26579;43.238;23.124;2023-07-02T01:51:36;96182.50;;;20.08;81.76
39411;BME280;26579;43.238;23.124;2023-07-02T01:54:01;96180.06;;;20.13;81.86
39411;BME280;26579;43.238;23.124;2023-07-02T01:56:27;96182.28;;;20.10;82.50
39411;BME280;26579;43.238;23.124;2023-07-02T01:58:53;96178.63;;;20.11;82.76
39411;BME280;26579;43.238;23.124;2023-07-02T02:01:19;96177.81;;;20.04;84.35
39411;BME280;26579;43.238;23.124;2023-07-02T02:03:45;96182.50;;;20.08;82.72
39411;BME280;26579;43.238;23.124;2023-07-02T02:06:11;96181.25;;;19.98;84.91
39411;BME280;26579;43.238;23.124;2023-07-02T02:08:36;96182.69;;;20.07;83.35
39411;BME280;26579;43.238;23.124;2023-07-02T02:11:02;96178.66;;;20.04;83.65
39411;BME280;26579;43.238;23.124;2023-07-02T02:13:28;96160.31;;;19.89;85.58
39411;BME280;26579;43.238;23.124;2023-07-02T02:15:54;96169.06;;;20.03;85.29
39411;BME280;26579;43.238;23.124;2023-07-02T02:18:20;96165.81;;;19.88;86.53
39411;BME280;26579;43.238;23.124;2023-07-02T02:20:46;96164.81;;;19.96;86.08
39411;BME280;26579;43.238;23.124;2023-07-02T02:23:11;96160.94;;;19.92;86.39
39411;BME280;26579;43.238;23.124;2023-07-02T02:25:37;96163.81;;;19.90;86.60
39411;BME280;26579;43.238;23.124;2023-07-02T02:28:03;96157.69;;;19.89;87.16
39411;BME280;26579;43.238;23.124;2023-07-02T02:30:29;96148.56;;;19.85;87.19
39411;BME280;26579;43.238;23.124;2023-07-02T02:32:55;96146.72;;;19.79;87.63
39411;BME280;26579;43.238;23.124;2023-07-02T02:35:21;96152.00;;;19.73;87.93
39411;BME280;26579;43.238;23.124;2023-07-02T02:37:47;96154.03;;;19.77;87.96
39411;BME280;26579;43.238;23.124;2023-07-02T02:40:13;96161.56;;;19.87;86.08
39411;BME280;26579;43.238;23.124;2023-07-02T02:42:39;96150.38;;;19.85;84.93
39411;BME280;26579;43.238;23.124;2023-07-02T02:45:05;96159.94;;;19.86;84.49
39411;BME280;26579;43.238;23.124;2023-07-02T02:47:31;96161.97;;;19.84;84.48
39411;BME280;26579;43.238;23.124;2023-07-02T02:49:57;96175.97;;;19.98;83.76
39411;BME280;26579;43.238;23.124;2023-07-02T02:52:23;96177.81;;;19.97;83.45
39411;BME280;26579;43.238;23.124;2023-07-02T02:54:50;96184.50;;;19.86;83.93
39411;BME280;26579;43.238;23.124;2023-07-02T02:57:15;96186.56;;;19.91;84.30
39411;BME280;26579;43.238;23.124;2023-07-02T02:59:41;96193.06;;;19.88;84.53
39411;BME280;26579;43.238;23.124;2023-07-02T03:02:07;96207.28;;;19.94;83.72
39411;BME280;26579;43.238;23.124;2023-07-02T03:04:34;96214.00;;;19.97;83.01
39411;BME280;26579;43.238;23.124;2023-07-02T03:07:00;96203.22;;;19.98;83.61
39411;BME280;26579;43.238;23.124;2023-07-02T03:09:25;96208.69;;;20.10;83.42
39411;BME280;26579;43.238;23.124;2023-07-02T03:11:51;96207.09;;;20.02;82.80
39411;BME280;26579;43.238;23.124;2023-07-02T03:14:17;96207.69;;;19.98;82.81
39411;BME280;26579;43.238;23.124;2023-07-02T03:16:42;96200.34;;;19.86;83.75
39411;BME280;26579;43.238;23.124;2023-07-02T03:19:08;96212.56;;;19.94;84.62
39411;BME280;26579;43.238;23.124;2023-07-02T03:21:34;96217.84;;;19.87;84.52
39411;BME280;26579;43.238;23.124;2023-07-02T03:24:00;96208.50;;;19.78;85.74
39411;BME280;26579;43.238;23.124;2023-07-02T03:26:25;96208.09;;;19.81;84.42
39411;BME280;26579;43.238;23.124;2023-07-02T03:28:51;96216.22;;;19.93;83.37
39411;BME280;26579;43.238;23.124;2023-07-02T03:31:17;96209.94;;;19.87;83.86
39411;BME280;26579;43.238;23.124;2023-07-02T03:33:42;96205.84;;;19.92;84.35
39411;BME280;26579;43.238;23.124;2023-07-02T03:36:08;96205.66;;;20.00;83.62
39411;BME280;26579;43.238;23.124;2023-07-02T03:38:33;96189.41;;;20.03;82.67
39411;BME280;26579;43.238;23.124;2023-07-02T03:40:59;96184.34;;;20.01;83.18
39411;BME280;26579;43.238;23.124;2023-07-02T03:43:26;96187.75;;;19.95;83.31
39411;BME280;26579;43.238;23.124;2023-07-02T03:45:52;96203.84;;;20.13;82.10
39411;BME280;26579;43.238;23.124;2023-07-02T03:48:18;96203.22;;;20.11;81.36
39411;BME280;26579;43.238;23.124;2023-07-02T03:50:44;96198.94;;;20.04;81.75
39411;BME280;26579;43.238;23.124;2023-07-02T03:53:09;96190.81;;;20.12;81.14
39411;BME280;26579;43.238;23.124;2023-07-02T03:55:35;96193.88;;;20.16;81.54
39411;BME280;26579;43.238;23.124;2023-07-02T03:58:01;96185.13;;;20.08;82.00
39411;BME280;26579;43.238;23.124;2023-07-02T04:00:27;96194.28;;;20.26;81.97
39411;BME280;26579;43.238;23.124;2023-07-02T04:02:52;96189.59;;;20.21;82.16
39411;BME280;26579;43.238;23.124;2023-07-02T04:05:18;96193.44;;;20.19;82.21
39411;BME280;26579;43.238;23.124;2023-07-02T04:07:44;96195.09;;;20.20;82.08
39411;BME280;26579;43.238;23.124;2023-07-02T04:10:09;96206.88;;;20.24;82.21
39411;BME280;26579;43.238;23.124;2023-07-02T04:12:35;96209.31;;;20.25;82.02
39411;BME280;26579;43.238;23.124;2023-07-02T04:15:01;96209.13;;;20.20;81.99
39411;BME280;26579;43.238;23.124;2023-07-02T04:17:26;96208.31;;;20.20;81.83
39411;BME280;26579;43.238;23.124;2023-07-02T04:19:54;96209.75;;;20.22;81.48
39411;BME280;26579;43.238;23.124;2023-07-02T04:22:20;96225.38;;;20.37;81.55
39411;BME280;26579;43.238;23.124;2023-07-02T04:24:45;96223.34;;;20.39;81.50
39411;BME280;26579;43.238;23.124;2023-07-02T04:27:11;96223.34;;;20.46;81.64
39411;BME280;26579;43.238;23.124;2023-07-02T04:29:37;96224.16;;;20.46;81.84
39411;BME280;26579;43.238;23.124;2023-07-02T04:32:03;96213.16;;;20.49;81.31
39411;BME280;26579;43.238;23.124;2023-07-02T04:34:28;96216.44;;;20.51;81.19
39411;BME280;26579;43.238;23.124;2023-07-02T04:36:54;96223.78;;;20.63;80.89
39411;BME280;26579;43.238;23.124;2023-07-02T04:39:20;96221.72;;;20.71;80.27
39411;BME280;26579;43.238;23.124;2023-07-02T04:41:45;96226.97;;;20.78;78.74
39411;BME280;26579;43.238;23.124;2023-07-02T04:44:11;96229.81;;;20.90;77.66
39411;BME280;26579;43.238;23.124;2023-07-02T04:46:37;96222.47;;;20.92;79.25
39411;BME280;26579;43.238;23.124;2023-07-02T04:49:02;96227.09;;;21.03;79.82
39411;BME280;26579;43.238;23.124;2023-07-02T04:51:28;96220.16;;;21.15;79.57
39411;BME280;26579;43.238;23.124;2023-07-02T04:53:54;96221.31;;;21.26;80.47
39411;BME280;26579;43.238;23.124;2023-07-02T04:56:20;96212.38;;;21.27;80.86
39411;BME280;26579;43.238;23.124;2023-07-02T04:58:45;96217.66;;;21.27;81.37
39411;BME280;26579;43.238;23.124;2023-07-02T05:01:11;96229.25;;;21.39;81.32
39411;BME280;26579;43.238;23.124;2023-07-02T05:03:37;96205.66;;;21.24;80.30
39411;BME280;26579;43.238;23.124;2023-07-02T05:06:03;96223.97;;;21.33;80.85
39411;BME280;26579;43.238;23.124;2023-07-02T05:08:28;96225.63;;;21.27;81.43
39411;BME280;26579;43.238;23.124;2023-07-02T05:10:54;96229.69;;;21.36;81.71
39411;BME280;26579;43.238;23.124;2023-07-02T05:13:20;96223.34;;;21.37;82.08
39411;BME280;26579;43.238;23.124;2023-07-02T05:15:45;96228.34;;;21.52;81.10
39411;BME280;26579;43.238;23.124;2023-07-02T05:18:11;96239.53;;;21.61;80.71
39411;BME280;26579;43.238;23.124;2023-07-02T05:23:02;96244.47;;;21.89;78.86
39411;BME280;26579;43.238;23.124;2023-07-02T05:25:28;96238.69;;;21.99;79.65
39411;BME280;26579;43.238;23.124;2023-07-02T05:27:53;96242.75;;;22.01;80.02
39411;BME280;26579;43.238;23.124;2023-07-02T05:30:19;96241.25;;;22.12;80.55
39411;BME280;26579;43.238;23.124;2023-07-02T05:32:45;96241.59;;;22.22;80.94
39411;BME280;26579;43.238;23.124;2023-07-02T05:35:10;96235.03;;;22.31;80.30
39411;BME280;26579;43.238;23.124;2023-07-02T05:37:36;96235.16;;;22.36;80.80
39411;BME280;26579;43.238;23.124;2023-07-02T05:40:02;96240.31;;;22.56;81.07
39411;BME280;26579;43.238;23.124;2023-07-02T05:42:27;96239.72;;;22.54;77.64
39411;BME280;26579;43.238;23.124;2023-07-02T05:44:53;96222.19;;;22.53;76.68
39411;BME280;26579;43.238;23.124;2023-07-02T05:47:19;96231.03;;;22.66;76.77
39411;BME280;26579;43.238;23.124;2023-07-02T05:49:44;96231.19;;;22.71;73.83
39411;BME280;26579;43.238;23.124;2023-07-02T05:52:10;96231.19;;;22.71;69.14
39411;BME280;26579;43.238;23.124;2023-07-02T05:54:41;96248.44;;;22.80;70.47
39411;BME280;26579;43.238;23.124;2023-07-02T05:57:07;96243.03;;;22.93;71.57
39411;BME280;26579;43.238;23.124;2023-07-02T05:59:32;96223.03;;;22.91;69.41
39411;BME280;26579;43.238;23.124;2023-07-02T06:01:58;96248.34;;;23.12;68.39
39411;BME280;26579;43.238;23.124;2023-07-02T06:04:24;96248.94;;;23.14;70.71
39411;BME280;26579;43.238;23.124;2023-07-02T06:06:49;96244.31;;;23.27;73.14
39411;BME280;26579;43.238;23.124;2023-07-02T06:09:15;96250.13;;;23.36;73.72
39411;BME280;26579;43.238;23.124;2023-07-02T06:11:41;96245.19;;;23.40;69.92
39411;BME280;26579;43.238;23.124;2023-07-02T06:14:06;96244.94;;;23.41;71.73
39411;BME280;26579;43.238;23.124;2023-07-02T06:16:32;96240.56;;;23.47;73.03
39411;BME280;26579;43.238;23.124;2023-07-02T06:18:58;96243.13;;;23.42;72.96
39411;BME280;26579;43.238;23.124;2023-07-02T06:21:23;96240.97;;;23.32;71.74
39411;BME280;26579;43.238;23.124;2023-07-02T06:23:49;96245.84;;;23.35;72.86
39411;BME280;26579;43.238;23.124;2023-07-02T06:26:15;96254.47;;;23.31;73.47
39411;BME280;26579;43.238;23.124;2023-07-02T06:28:40;96247.78;;;23.28;75.84
39411;BME280;26579;43.238;23.124;2023-07-02T06:31:06;96245.72;;;23.30;76.70
39411;BME280;26579;43.238;23.124;2023-07-02T06:33:32;96248.19;;;23.43;71.99
39411;BME280;26579;43.238;23.124;2023-07-02T06:35:58;96236.97;;;23.41;68.58
39411;BME280;26579;43.238;23.124;2023-07-02T06:38:23;96238.81;;;23.59;64.91
39411;BME280;26579;43.238;23.124;2023-07-02T06:40:49;96234.88;;;23.80;66.23
39411;BME280;26579;43.238;23.124;2023-07-02T06:43:15;96244.63;;;23.98;68.81
39411;BME280;26579;43.238;23.124;2023-07-02T06:45:40;96237.59;;;24.04;57.45
39411;BME280;26579;43.238;23.124;2023-07-02T06:48:06;96234.63;;;24.24;59.59
39411;BME280;26579;43.238;23.124;2023-07-02T06:50:32;96233.47;;;24.31;55.45
39411;BME280;26579;43.238;23.124;2023-07-02T06:52:57;96230.16;;;24.48;54.13
39411;BME280;26579;43.238;23.124;2023-07-02T06:55:23;96228.31;;;24.60;64.32
39411;BME280;26579;43.238;23.124;2023-07-02T06:57:49;96227.63;;;24.65;65.22
39411;BME280;26579;43.238;23.124;2023-07-02T07:00:15;96233.41;;;24.73;62.53
39411;BME280;26579;43.238;23.124;2023-07-02T07:02:41;96237.22;;;24.77;59.06
39411;BME280;26579;43.238;23.124;2023-07-02T07:05:06;96235.34;;;24.90;59.10
39411;BME280;26579;43.238;23.124;2023-07-02T07:07:32;96235.94;;;24.92;55.22
39411;BME280;26579;43.238;23.124;2023-07-02T07:09:58;96234.78;;;24.99;58.04
39411;BME280;26579;43.238;23.124;2023-07-02T07:12:24;96229.66;;;25.10;58.38
39411;BME280;26579;43.238;23.124;2023-07-02T07:14:49;96241.50;;;25.14;59.87
39411;BME280;26579;43.238;23.124;2023-07-02T07:17:15;96226.34;;;25.14;55.69
39411;BME280;26579;43.238;23.124;2023-07-02T07:19:41;96247.94;;;25.29;58.96
39411;BME280;26579;43.238;23.124;2023-07-02T07:22:06;96241.50;;;25.25;59.38
39411;BME280;26579;43.238;23.124;2023-07-02T07:24:32;96245.53;;;25.28;59.88
39411;BME280;26579;43.238;23.124;2023-07-02T07:26:57;96248.50;;;25.43;62.48
39411;BME280;26579;43.238;23.124;2023-07-02T07:29:23;96245.84;;;25.43;55.46
39411;BME280;26579;43.238;23.124;2023-07-02T07:31:49;96248.25;;;25.45;55.94
39411;BME280;26579;43.238;23.124;2023-07-02T07:34:15;96243.13;;;25.55;57.89
39411;BME280;26579;43.238;23.124;2023-07-02T07:36:40;96243.25;;;25.60;54.81
39411;BME280;26579;43.238;23.124;2023-07-02T07:39:06;96241.72;;;25.64;53.75
39411;BME280;26579;43.238;23.124;2023-07-02T07:41:32;96240.28;;;25.73;52.06
39411;BME280;26579;43.238;23.124;2023-07-02T07:43:57;96243.97;;;25.84;53.10
39411;BME280;26579;43.238;23.124;2023-07-02T07:46:23;96242.91;;;25.85;52.15
39411;BME280;26579;43.238;23.124;2023-07-02T07:48:49;96255.47;;;26.02;48.75
39411;BME280;26579;43.238;23.124;2023-07-02T07:51:14;96249.19;;;26.08;51.18
39411;BME280;26579;43.238;23.124;2023-07-02T07:53:40;96250.97;;;26.19;51.49
39411;BME280;26579;43.238;23.124;2023-07-02T07:56:06;96245.81;;;26.29;54.75
39411;BME280;26579;43.238;23.124;2023-07-02T07:58:32;96256.88;;;26.38;53.71
39411;BME280;26579;43.238;23.124;2023-07-02T08:00:57;96257.53;;;26.45;54.57
39411;BME280;26579;43.238;23.124;2023-07-02T08:03:23;96262.00;;;26.39;53.03
39411;BME280;26579;43.238;23.124;2023-07-02T08:05:49;96255.91;;;26.44;53.79
39411;BME280;26579;43.238;23.124;2023-07-02T08:08:15;96258.34;;;26.29;54.83
39411;BME280;26579;43.238;23.124;2023-07-02T08:10:40;96261.25;;;26.27;56.46
39411;BME280;26579;43.238;23.124;2023-07-02T08:13:08;96263.50;;;26.35;57.87
39411;BME280;26579;43.238;23.124;2023-07-02T08:15:33;96258.84;;;26.42;55.46
39411;BME280;26579;43.238;23.124;2023-07-02T08:17:59;96265.81;;;26.60;56.24
39411;BME280;26579;43.238;23.124;2023-07-02T08:20:25;96272.44;;;26.75;56.75
39411;BME280;26579;43.238;23.124;2023-07-02T08:22:52;96256.72;;;26.78;54.03
39411;BME280;26579;43.238;23.124;2023-07-02T08:25:18;96271.06;;;26.89;56.21
39411;BME280;26579;43.238;23.124;2023-07-02T08:27:44;96265.94;;;26.87;58.21
39411;BME280;26579;43.238;23.124;2023-07-02T08:30:10;96269.09;;;26.84;59.88
39411;BME280;26579;43.238;23.124;2023-07-02T08:32:36;96274.78;;;26.88;60.76
39411;BME280;26579;43.238;23.124;2023-07-02T08:35:02;96272.84;;;26.83;60.88
39411;BME280;26579;43.238;23.124;2023-07-02T08:37:27;96275.66;;;26.94;59.96
39411;BME280;26579;43.238;23.124;2023-07-02T08:39:53;96265.53;;;26.96;58.81
39411;BME280;26579;43.238;23.124;2023-07-02T08:42:19;96256.09;;;26.88;58.78
39411;BME280;26579;43.238;23.124;2023-07-02T08:44:46;96268.22;;;26.79;59.17
39411;BME280;26579;43.238;23.124;2023-07-02T08:47:12;96261.81;;;26.46;59.65
39411;BME280;26579;43.238;23.124;2023-07-02T08:49:38;96260.88;;;26.69;61.04
39411;BME280;26579;43.238;23.124;2023-07-02T08:52:04;96264.34;;;26.70;59.85
39411;BME280;26579;43.238;23.124;2023-07-02T08:54:30;96267.91;;;26.41;60.19
39411;BME280;26579;43.238;23.124;2023-07-02T08:56:55;96271.09;;;26.10;62.80
39411;BME280;26579;43.238;23.124;2023-07-02T08:59:21;96264.16;;;26.26;62.30
39411;BME280;26579;43.238;23.124;2023-07-02T09:01:48;96259.50;;;26.33;62.65
39411;BME280;26579;43.238;23.124;2023-07-02T09:06:44;96280.41;;;26.24;61.67
39411;BME280;26579;43.238;23.124;2023-07-02T09:09:10;96264.47;;;26.12;60.87
39411;BME280;26579;43.238;23.124;2023-07-02T09:11:46;96277.25;;;26.10;59.38
39411;BME280;26579;43.238;23.124;2023-07-02T09:14:32;96284.50;;;25.98;62.38
39411;BME280;26579;43.238;23.124;2023-07-02T09:17:07;96285.69;;;25.79;62.38
39411;BME280;26579;43.238;23.124;2023-07-02T09:19:34;96275.22;;;25.60;62.61
39411;BME280;26579;43.238;23.124;2023-07-02T09:22:00;96275.69;;;25.57;64.20
39411;BME280;26579;43.238;23.124;2023-07-02T09:24:27;96274.41;;;25.48;62.59
39411;BME280;26579;43.238;23.124;2023-07-02T09:26:54;96281.28;;;25.44;63.54
39411;BME280;26579;43.238;23.124;2023-07-02T09:29:24;96289.06;;;25.45;65.51
39411;BME280;26579;43.238;23.124;2023-07-02T09:31:51;96304.00;;;25.35;65.98
39411;BME280;26579;43.238;23.124;2023-07-02T09:34:17;96304.00;;;25.11;66.63
39411;BME280;26579;43.238;23.124;2023-07-02T09:36:43;96296.59;;;24.90;63.36
39411;BME280;26579;43.238;23.124;2023-07-02T09:39:18;96296.38;;;24.91;62.55
39411;BME280;26579;43.238;23.124;2023-07-02T09:41:44;96301.69;;;24.91;64.99
39411;BME280;26579;43.238;23.124;2023-07-02T09:44:13;96303.78;;;24.89;66.36
39411;BME280;26579;43.238;23.124;2023-07-02T09:47:05;96300.78;;;24.85;65.61
39411;BME280;26579;43.238;23.124;2023-07-02T09:49:35;96294.50;;;24.80;64.00
39411;BME280;26579;43.238;23.124;2023-07-02T09:52:05;96290.91;;;24.62;65.69
39411;BME280;26579;43.238;23.124;2023-07-02T09:54:32;96292.50;;;24.52;65.53
39411;BME280;26579;43.238;23.124;2023-07-02T09:56:58;96305.25;;;24.50;66.59
39411;BME280;26579;43.238;23.124;2023-07-02T09:59:24;96322.69;;;24.46;65.94
39411;BME280;26579;43.238;23.124;2023-07-02T10:01:51;96322.16;;;24.55;67.13
39411;BME280;26579;43.238;23.124;2023-07-02T10:04:18;96336.28;;;24.56;65.27
39411;BME280;26579;43.238;23.124;2023-07-02T10:06:48;96342.41;;;24.56;67.26
39411;BME280;26579;43.238;23.124;2023-07-02T10:09:15;96337.56;;;24.65;67.97
39411;BME280;26579;43.238;23.124;2023-07-02T10:11:41;96336.41;;;24.73;68.18
39411;BME280;26579;43.238;23.124;2023-07-02T10:14:07;96342.09;;;24.88;70.46
39411;BME280;26579;43.238;23.124;2023-07-02T10:16:33;96351.47;;;25.02;72.17
39411;BME280;26579;43.238;23.124;2023-07-02T10:19:11;96342.25;;;25.17;70.97
39411;BME280;26579;43.238;23.124;2023-07-02T10:21:37;96330.66;;;25.35;68.05
39411;BME280;26579;43.238;23.124;2023-07-02T10:24:13;96339.38;;;25.70;59.83
39411;BME280;26579;43.238;23.124;2023-07-02T10:26:51;96336.06;;;26.04;60.05
39411;BME280;26579;43.238;23.124;2023-07-02T10:29:21;96332.41;;;26.22;60.70
39411;BME280;26579;43.238;23.124;2023-07-02T10:31:49;96327.13;;;26.27;61.00
39411;BME280;26579;43.238;23.124;2023-07-02T10:34:14;96322.00;;;26.08;57.05
39411;BME280;26579;43.238;23.124;2023-07-02T10:36:40;96328.03;;;26.15;56.75
39411;BME280;26579;43.238;23.124;2023-07-02T10:39:06;96329.47;;;26.23;53.67
39411;BME280;26579;43.238;23.124;2023-07-02T10:41:31;96336.53;;;26.46;50.75
39411;BME280;26579;43.238;23.124;2023-07-02T10:44:08;96349.31;;;26.44;52.59
39411;BME280;26579;43.238;23.124;2023-07-02T10:46:34;96366.13;;;26.28;56.99
39411;BME280;26579;43.238;23.124;2023-07-02T10:49:00;96369.63;;;25.88;58.21
39411;BME280;26579;43.238;23.124;2023-07-02T10:51:26;96369.78;;;25.58;58.93
39411;BME280;26579;43.238;23.124;2023-07-02T10:53:59;96369.44;;;25.19;56.97
39411;BME280;26579;43.238;23.124;2023-07-02T10:56:26;96380.16;;;24.77;57.79
39411;BME280;26579;43.238;23.124;2023-07-02T10:58:53;96367.75;;;24.59;58.13
39411;BME280;26579;43.238;23.124;2023-07-02T11:01:27;96378.03;;;24.55;58.11
39411;BME280;26579;43.238;23.124;2023-07-02T11:06:23;96374.28;;;24.14;60.67
39411;BME280;26579;43.238;23.124;2023-07-02T11:08:48;96384.66;;;23.86;61.55
39411;BME280;26579;43.238;23.124;2023-07-02T11:11:14;96372.31;;;23.73;63.50
39411;BME280;26579;43.238;23.124;2023-07-02T11:13:47;96373.19;;;23.67;67.29
39411;BME280;26579;43.238;23.124;2023-07-02T11:18:48;96360.00;;;23.79;69.01
39411;BME280;26579;43.238;23.124;2023-07-02T11:21:13;96361.25;;;23.76;70.21
39411;BME280;26579;43.238;23.124;2023-07-02T11:23:39;96344.38;;;24.01;71.61
39411;BME280;26579;43.238;23.124;2023-07-02T11:26:05;96346.91;;;24.26;68.65
39411;BME280;26579;43.238;23.124;2023-07-02T11:28:31;96345.25;;;24.55;68.40
39411;BME280;26579;43.238;23.124;2023-07-02T11:30:58;96341.84;;;24.78;64.29
39411;BME280;26579;43.238;23.124;2023-07-02T11:33:36;96336.44;;;24.84;60.60
39411;BME280;26579;43.238;23.124;2023-07-02T11:36:06;96333.06;;;25.13;55.69
39411;BME280;26579;43.238;23.124;2023-07-02T11:38:36;96328.22;;;25.33;55.35
39411;BME280;26579;43.238;23.124;2023-07-02T11:41:03;96329.25;;;25.44;57.63
39411;BME280;26579;43.238;23.124;2023-07-02T11:43:29;96336.03;;;25.63;57.20
39411;BME280;26579;43.238;23.124;2023-07-02T11:45:54;96338.44;;;25.77;58.85
39411;BME280;26579;43.238;23.124;2023-07-02T11:48:20;96340.97;;;25.95;62.48
39411;BME280;26579;43.238;23.124;2023-07-02T11:50:46;96338.78;;;25.92;63.73
39411;BME280;26579;43.238;23.124;2023-07-02T11:53:12;96336.94;;;25.81;61.61
39411;BME280;26579;43.238;23.124;2023-07-02T11:55:37;96340.28;;;25.76;62.88
39411;BME280;26579;43.238;23.124;2023-07-02T11:58:03;96330.72;;;25.63;64.10
39411;BME280;26579;43.238;23.124;2023-07-02T12:00:29;96338.75;;;25.51;64.31
39411;BME280;26579;43.238;23.124;2023-07-02T12:02:55;96333.88;;;25.48;61.64
39411;BME280;26579;43.238;23.124;2023-07-02T12:05:20;96343.22;;;25.51;64.11
39411;BME280;26579;43.238;23.124;2023-07-02T12:07:46;96345.00;;;25.45;62.80
39411;BME280;26579;43.238;23.124;2023-07-02T12:10:12;96338.53;;;25.18;61.56
39411;BME280;26579;43.238;23.124;2023-07-02T12:12:37;96342.56;;;24.97;63.58
39411;BME280;26579;43.238;23.124;2023-07-02T12:15:04;96347.31;;;24.95;68.50
39411;BME280;26579;43.238;23.124;2023-07-02T12:17:30;96344.75;;;24.88;66.85
39411;BME280;26579;43.238;23.124;2023-07-02T12:19:56;96339.75;;;24.80;68.54
39411;BME280;26579;43.238;23.124;2023-07-02T12:22:22;96330.16;;;24.79;74.65
39411;BME280;26579;43.238;23.124;2023-07-02T12:24:47;96345.34;;;24.78;75.27
39411;BME280;26579;43.238;23.124;2023-07-02T12:27:13;96332.69;;;24.74;74.08
39411;BME280;26579;43.238;23.124;2023-07-02T12:29:39;96336.03;;;24.69;69.50
39411;BME280;26579;43.238;23.124;2023-07-02T12:32:05;96331.66;;;24.75;74.73
39411;BME280;26579;43.238;23.124;2023-07-02T12:34:31;96334.56;;;24.73;68.54
39411;BME280;26579;43.238;23.124;2023-07-02T12:36:57;96324.59;;;24.69;70.40
39411;BME280;26579;43.238;23.124;2023-07-02T12:39:23;96330.94;;;24.56;74.10
39411;BME280;26579;43.238;23.124;2023-07-02T12:41:48;96339.84;;;24.50;76.45
39411;BME280;26579;43.238;23.124;2023-07-02T12:44:14;96342.25;;;24.51;78.75
39411;BME280;26579;43.238;23.124;2023-07-02T12:46:41;96343.25;;;24.38;78.12
39411;BME280;26579;43.238;23.124;2023-07-02T12:49:07;96351.22;;;24.38;77.99
39411;BME280;26579;43.238;23.124;2023-07-02T12:51:33;96347.16;;;24.36;78.46
39411;BME280;26579;43.238;23.124;2023-07-02T12:53:59;96342.16;;;24.28;79.81
39411;BME280;26579;43.238;23.124;2023-07-02T12:56:24;96342.78;;;24.11;78.08